Time;durP1;ratioP1;P1;durP2;ratioP2;P2;SDS_P1;SDS_P2;PMS_P1;PMS_P2;Temp;Humidity;BMP_temperature;BMP_pressure;BME280_temperature;BME280_humidity;BME280_pressure;Samples;Min_cycle;Max_cycle;Signal;HPM_P1;HPM_P2
2024/01/21 00:01:55;;;;;;;15.13;7.32;;;-2.00;99.90;;;;;;5092054;28;20258;-53
2024/01/21 00:04:22;;;;;;;14.57;8.10;;;-2.00;99.90;;;;;;5092633;28;20217;-53
2024/01/21 00:06:48;;;;;;;12.40;6.55;;;-2.00;99.90;;;;;;5091379;28;20683;-52
2024/01/21 00:09:13;;;;;;;13.68;7.93;;;-1.90;99.90;;;;;;5091223;28;20166;-53
2024/01/21 00:11:39;;;;;;;11.27;7.70;;;-1.90;99.90;;;;;;5091776;28;20616;-53
2024/01/21 00:14:04;;;;;;;13.07;7.35;;;-1.90;99.90;;;;;;5091615;28;20620;-56
2024/01/21 00:16:30;;;;;;;11.18;6.53;;;-1.80;99.90;;;;;;5091754;28;20174;-56
2024/01/21 00:18:55;;;;;;;11.40;6.25;;;-1.90;99.90;;;;;;5091613;28;20169;-53
2024/01/21 00:21:21;;;;;;;13.70;6.70;;;-1.90;99.90;;;;;;5092026;28;20254;-57
2024/01/21 00:23:47;;;;;;;16.85;8.43;;;-1.90;99.90;;;;;;5091528;28;20158;-53
2024/01/21 00:26:13;;;;;;;13.80;7.82;;;-1.90;99.90;;;;;;5091359;28;20169;-53
2024/01/21 00:28:38;;;;;;;13.30;6.70;;;-1.90;99.90;;;;;;5091483;28;20177;-53
2024/01/21 00:31:04;;;;;;;14.55;7.35;;;-1.90;99.90;;;;;;5091500;28;20230;-53
2024/01/21 00:33:30;;;;;;;13.63;6.80;;;-1.90;99.90;;;;;;5091398;28;20169;-53
2024/01/21 00:35:55;;;;;;;13.97;7.50;;;-1.90;99.90;;;;;;5091513;28;20251;-54
2024/01/21 00:38:21;;;;;;;12.63;7.18;;;-1.90;99.90;;;;;;5091835;28;20195;-54
2024/01/21 00:40:47;;;;;;;13.35;8.18;;;-1.90;99.90;;;;;;5091303;28;20257;-53
2024/01/21 00:43:12;;;;;;;10.95;6.75;;;-1.90;99.90;;;;;;5091561;28;20165;-55
2024/01/21 00:45:38;;;;;;;15.57;7.50;;;-1.90;99.90;;;;;;5091257;28;20173;-53
2024/01/21 00:48:04;;;;;;;15.68;7.57;;;-1.90;99.90;;;;;;5091311;28;20169;-56
2024/01/21 00:50:30;;;;;;;12.37;6.80;;;-1.90;99.90;;;;;;5091163;28;20231;-55
2024/01/21 00:52:56;;;;;;;13.60;7.45;;;-1.90;99.90;;;;;;5091156;28;20565;-55
2024/01/21 00:55:21;;;;;;;13.15;7.43;;;-1.90;99.90;;;;;;5091626;28;20180;-53
2024/01/21 00:57:47;;;;;;;11.82;6.88;;;-1.80;99.90;;;;;;5091003;28;20209;-54
2024/01/21 01:00:13;;;;;;;12.68;6.57;;;-1.90;99.90;;;;;;5091254;28;20212;-53
2024/01/21 01:02:39;;;;;;;12.27;6.47;;;-1.80;99.90;;;;;;5091065;28;20199;-54
2024/01/21 01:05:05;;;;;;;10.53;6.43;;;-1.80;99.90;;;;;;5091341;28;20165;-53
2024/01/21 01:07:30;;;;;;;12.20;5.80;;;-1.80;99.90;;;;;;5091085;28;20165;-54
2024/01/21 01:09:56;;;;;;;12.68;7.07;;;-1.80;99.90;;;;;;5090975;28;20294;-53
2024/01/21 01:12:21;;;;;;;16.38;7.82;;;-1.80;99.90;;;;;;5091499;28;20169;-54
2024/01/21 01:14:47;;;;;;;17.02;7.88;;;-1.80;99.90;;;;;;5091018;28;20225;-55
2024/01/21 01:17:13;;;;;;;13.55;6.63;;;-1.70;99.90;;;;;;5091012;28;20231;-56
2024/01/21 01:19:39;;;;;;;13.13;6.80;;;-1.70;99.90;;;;;;5091119;28;20180;-54
2024/01/21 01:22:04;;;;;;;11.93;6.57;;;-1.70;99.90;;;;;;5089630;28;20201;-56
2024/01/21 01:24:30;;;;;;;15.38;7.47;;;-1.70;99.90;;;;;;5090889;28;20162;-53
2024/01/21 01:26:55;;;;;;;14.52;8.05;;;-1.70;99.90;;;;;;5090923;28;20253;-52
2024/01/21 01:29:21;;;;;;;14.27;7.45;;;-1.70;99.90;;;;;;5091529;28;20180;-53
2024/01/21 01:31:46;;;;;;;18.75;8.98;;;-1.60;99.90;;;;;;5090870;28;20499;-54
2024/01/21 01:34:12;;;;;;;13.93;7.78;;;-1.60;99.90;;;;;;5091055;28;20643;-53
2024/01/21 01:36:38;;;;;;;12.50;7.25;;;-1.60;99.90;;;;;;5091037;28;20201;-53
2024/01/21 01:39:05;;;;;;;14.23;7.88;;;-1.60;99.90;;;;;;5093843;28;20525;-53
2024/01/21 01:41:30;;;;;;;14.15;8.15;;;-1.50;99.90;;;;;;5094554;28;20213;-53
2024/01/21 01:43:56;;;;;;;15.80;8.45;;;-1.60;99.90;;;;;;5094594;28;20172;-52
2024/01/21 01:46:22;;;;;;;15.75;8.45;;;-1.50;99.90;;;;;;5093681;28;20176;-53
2024/01/21 01:48:49;;;;;;;16.13;8.25;;;-1.50;99.90;;;;;;5094360;28;20157;-53
2024/01/21 01:51:14;;;;;;;15.90;8.02;;;-1.50;99.90;;;;;;5094368;28;20176;-52
2024/01/21 01:53:40;;;;;;;11.93;7.10;;;-1.50;99.90;;;;;;5094351;28;20165;-52
2024/01/21 01:56:07;;;;;;;16.67;8.90;;;-1.50;99.90;;;;;;5094089;28;20313;-53
2024/01/21 01:58:34;;;;;;;17.00;8.45;;;-1.50;99.90;;;;;;5094251;28;20173;-53
2024/01/21 02:01:01;;;;;;;12.70;7.75;;;-1.40;99.90;;;;;;5094245;28;20314;-55
2024/01/21 02:03:28;;;;;;;16.27;8.68;;;-1.40;99.90;;;;;;5092885;28;20176;-54
2024/01/21 02:05:53;;;;;;;13.57;7.28;;;-1.50;99.90;;;;;;5094584;28;20161;-56
2024/01/21 02:08:19;;;;;;;15.57;8.43;;;-1.40;99.90;;;;;;5094077;28;20226;-54
2024/01/21 02:10:46;;;;;;;12.93;7.75;;;-1.40;99.90;;;;;;5094005;28;20165;-57
2024/01/21 02:13:12;;;;;;;16.20;8.43;;;-1.40;99.90;;;;;;5093937;28;20239;-55
2024/01/21 02:15:37;;;;;;;16.35;8.65;;;-1.40;99.90;;;;;;5094084;28;20197;-53
2024/01/21 02:18:03;;;;;;;15.52;8.73;;;-1.40;99.90;;;;;;5093912;28;20193;-53
2024/01/21 02:20:29;;;;;;;13.90;8.02;;;-1.40;99.90;;;;;;5092626;28;20223;-53
2024/01/21 02:22:59;;;;;;;18.90;8.07;;;0.00;99.90;;;;;;5092467;28;20704;-54
2024/01/21 02:25:25;;;;;;;19.45;8.73;;;-1.30;99.90;;;;;;5094311;28;20169;-54
2024/01/21 02:27:51;;;;;;;13.73;7.95;;;-1.30;99.90;;;;;;5093041;28;20238;-55
2024/01/21 02:30:17;;;;;;;15.50;8.60;;;-1.30;99.90;;;;;;5092480;28;20562;-53
2024/01/21 02:32:43;;;;;;;14.07;7.93;;;-1.30;99.90;;;;;;5093686;28;20187;-56
2024/01/21 02:35:09;;;;;;;13.77;7.35;;;-1.30;99.90;;;;;;5092314;28;20515;-55
2024/01/21 02:37:34;;;;;;;13.65;7.80;;;-1.40;99.90;;;;;;5092290;28;20187;-54
2024/01/21 02:40:00;;;;;;;14.43;7.75;;;-1.30;99.90;;;;;;5093389;28;20181;-53
2024/01/21 02:42:26;;;;;;;13.27;8.10;;;-1.30;99.90;;;;;;5092363;28;20205;-53
2024/01/21 02:44:54;;;;;;;13.48;8.18;;;0.20;99.90;;;;;;5075562;28;20162;-53
2024/01/21 02:47:23;;;;;;;14.43;7.90;;;1.20;99.90;;;;;;5093056;28;20260;-55
2024/01/21 02:49:49;;;;;;;14.98;8.88;;;-1.30;99.90;;;;;;5091860;28;20161;-53
2024/01/21 02:52:15;;;;;;;15.60;7.90;;;-1.40;99.90;;;;;;5092579;28;20169;-56
2024/01/21 02:54:41;;;;;;;13.38;8.00;;;-0.10;99.90;;;;;;5091884;28;20169;-53
2024/01/21 02:57:07;;;;;;;15.48;8.43;;;-1.40;99.90;;;;;;5091577;28;20688;-53
2024/01/21 02:59:33;;;;;;;14.43;8.77;;;-1.40;99.90;;;;;;5092855;28;20252;-53
2024/01/21 03:02:01;;;;;;;12.95;8.00;;;-1.30;99.90;;;;;;5092747;28;20330;-56
2024/01/21 03:04:27;;;;;;;12.32;7.78;;;-1.40;99.90;;;;;;5092541;28;20192;-53
2024/01/21 03:06:57;;;;;;;16.23;7.95;;;-1.40;99.90;;;;;;5093026;28;20165;-56
2024/01/21 03:09:23;;;;;;;11.43;7.03;;;-1.30;99.90;;;;;;5091701;28;20571;-56
2024/01/21 03:11:49;;;;;;;14.65;7.97;;;-1.30;99.90;;;;;;5091266;28;20172;-54
2024/01/21 03:14:14;;;;;;;13.55;7.88;;;-1.30;99.90;;;;;;5092618;28;20396;-53
2024/01/21 03:16:44;;;;;;;16.60;7.35;;;-1.30;99.90;;;;;;5092509;28;20549;-53
2024/01/21 03:19:10;;;;;;;16.85;8.95;;;-1.40;99.90;;;;;;5092347;28;20187;-53
2024/01/21 03:21:36;;;;;;;14.15;8.00;;;-1.30;99.90;;;;;;5091475;28;20202;-53
2024/01/21 03:24:02;;;;;;;13.27;8.23;;;-1.30;99.90;;;;;;5093109;28;20153;-52
2024/01/21 03:26:28;;;;;;;14.23;7.47;;;-1.30;99.90;;;;;;5091355;28;20197;-53
2024/01/21 03:28:54;;;;;;;16.92;8.18;;;-1.30;99.90;;;;;;5092054;28;20219;-53
2024/01/21 03:31:20;;;;;;;13.15;7.70;;;-1.30;99.90;;;;;;5091329;28;20169;-53
2024/01/21 03:33:46;;;;;;;16.33;7.88;;;1.00;99.90;;;;;;5090995;28;20698;-54
2024/01/21 03:36:12;;;;;;;16.50;7.53;;;-1.30;99.90;;;;;;5092298;28;20256;-52
2024/01/21 03:38:39;;;;;;;14.50;7.70;;;-1.40;99.90;;;;;;5090836;28;20570;-53
2024/01/21 03:41:05;;;;;;;14.43;7.70;;;-1.40;99.90;;;;;;5090946;28;20562;-54
2024/01/21 03:43:31;;;;;;;14.70;8.10;;;-1.40;99.90;;;;;;5092262;28;20169;-54
2024/01/21 03:45:57;;;;;;;13.65;8.18;;;-1.40;99.90;;;;;;5092190;28;20632;-52
2024/01/21 03:48:23;;;;;;;10.95;7.03;;;-1.40;99.90;;;;;;5091255;28;20173;-54
2024/01/21 03:50:49;;;;;;;15.80;7.80;;;-1.40;99.90;;;;;;5092040;28;20161;-54
2024/01/21 03:53:15;;;;;;;11.82;7.32;;;-1.40;99.90;;;;;;5090983;28;20166;-53
2024/01/21 03:55:41;;;;;;;17.05;7.70;;;-1.40;99.90;;;;;;5091646;28;20180;-55
2024/01/21 03:58:06;;;;;;;12.95;7.85;;;-1.40;99.90;;;;;;5090681;28;20177;-53
2024/01/21 04:00:32;;;;;;;13.13;7.97;;;-1.40;99.90;;;;;;5090475;28;20244;-55
2024/01/21 04:02:58;;;;;;;16.58;8.52;;;-1.40;99.90;;;;;;5090325;28;20177;-53
2024/01/21 04:05:24;;;;;;;14.63;6.90;;;-1.40;99.90;;;;;;5090988;28;20171;-53
2024/01/21 04:07:50;;;;;;;13.98;7.45;;;-1.40;99.90;;;;;;5091058;28;20177;-53
2024/01/21 04:10:16;;;;;;;14.68;8.00;;;-1.40;99.90;;;;;;5090425;28;20169;-56
2024/01/21 04:12:41;;;;;;;17.75;8.68;;;-1.40;99.90;;;;;;5091702;28;20165;-57
2024/01/21 04:15:07;;;;;;;17.25;8.65;;;-1.40;99.90;;;;;;5091707;28;20157;-57
2024/01/21 04:17:33;;;;;;;17.27;9.15;;;-1.40;99.90;;;;;;5091865;28;20169;-57
2024/01/21 04:19:58;;;;;;;16.55;9.80;;;-1.40;99.90;;;;;;5091709;28;20169;-57
2024/01/21 04:22:24;;;;;;;13.32;8.77;;;-1.40;99.90;;;;;;5092295;28;20210;-58
2024/01/21 04:24:49;;;;;;;16.33;9.38;;;-1.40;99.90;;;;;;5092046;28;20164;-53
2024/01/21 04:27:15;;;;;;;14.38;7.85;;;-1.40;99.90;;;;;;5091512;28;20161;-53
2024/01/21 04:29:40;;;;;;;14.05;8.27;;;-1.40;99.90;;;;;;5091478;28;20172;-53
2024/01/21 04:32:06;;;;;;;16.58;8.40;;;-1.30;99.90;;;;;;5091441;28;20169;-53
2024/01/21 04:34:31;;;;;;;15.75;9.02;;;-1.30;99.90;;;;;;5091479;28;20165;-54
2024/01/21 04:36:57;;;;;;;17.38;8.93;;;-1.30;99.90;;;;;;5091626;28;20170;-52
2024/01/21 04:39:23;;;;;;;19.60;8.52;;;-1.30;99.90;;;;;;5091759;28;20647;-53
2024/01/21 04:41:48;;;;;;;16.00;8.50;;;-1.30;99.90;;;;;;5091468;28;20205;-53
2024/01/21 04:44:14;;;;;;;16.30;8.85;;;-1.30;99.90;;;;;;5091278;28;20214;-53
2024/01/21 04:46:40;;;;;;;14.73;8.80;;;-1.30;99.90;;;;;;5091285;28;20173;-53
2024/01/21 04:49:05;;;;;;;15.30;8.63;;;-1.30;99.90;;;;;;5091307;28;20164;-53
2024/01/21 04:51:31;;;;;;;15.63;8.60;;;-1.30;99.90;;;;;;5091242;28;20166;-53
2024/01/21 04:53:56;;;;;;;17.75;8.63;;;-1.30;99.90;;;;;;5091166;28;20685;-53
2024/01/21 04:56:22;;;;;;;15.80;9.10;;;-1.30;99.90;;;;;;5091664;28;20684;-54
2024/01/21 04:58:48;;;;;;;17.58;9.20;;;-1.30;99.90;;;;;;5091166;28;20192;-56
2024/01/21 05:01:15;;;;;;;17.58;8.90;;;-1.30;99.90;;;;;;5091297;28;20335;-56
2024/01/21 05:03:41;;;;;;;15.77;7.78;;;-1.30;99.90;;;;;;5091108;28;20161;-56
2024/01/21 05:06:06;;;;;;;14.23;7.82;;;-1.30;99.90;;;;;;5091154;28;20176;-55
2024/01/21 05:08:32;;;;;;;16.13;7.93;;;-1.30;99.90;;;;;;5091083;28;20172;-56
2024/01/21 05:10:58;;;;;;;19.35;9.93;;;-1.30;99.90;;;;;;5090990;28;20158;-57
2024/01/21 05:13:24;;;;;;;16.95;9.00;;;-1.30;99.90;;;;;;5093435;28;20164;-54
2024/01/21 05:15:49;;;;;;;17.38;9.55;;;-1.30;99.90;;;;;;5095545;28;20183;-55
2024/01/21 05:18:15;;;;;;;16.77;8.95;;;-1.30;99.90;;;;;;5095093;28;20165;-56
2024/01/21 05:20:41;;;;;;;15.65;8.60;;;-1.30;99.90;;;;;;5094916;28;20193;-57
2024/01/21 05:23:07;;;;;;;16.42;8.90;;;-1.30;99.90;;;;;;5094981;28;20193;-56
2024/01/21 05:25:32;;;;;;;15.77;8.45;;;-1.30;99.90;;;;;;5094955;28;20574;-56
2024/01/21 05:27:58;;;;;;;15.15;8.55;;;-1.30;99.90;;;;;;5094865;28;20260;-57
2024/01/21 05:30:24;;;;;;;15.05;9.00;;;-1.30;99.90;;;;;;5095374;28;20647;-57
2024/01/21 05:32:51;;;;;;;16.90;8.60;;;-1.80;99.90;;;;;;5095161;28;20634;-56
2024/01/21 05:35:17;;;;;;;15.18;7.65;;;-1.30;99.90;;;;;;5094918;28;20180;-56
2024/01/21 05:37:42;;;;;;;16.77;8.38;;;-1.30;99.90;;;;;;5094922;28;20173;-56
2024/01/21 05:40:08;;;;;;;15.85;8.45;;;0.30;99.90;;;;;;5094661;28;20162;-56
2024/01/21 05:42:34;;;;;;;16.17;8.48;;;-1.30;99.90;;;;;;5094494;28;20196;-53
2024/01/21 05:44:59;;;;;;;16.48;8.02;;;-1.30;99.90;;;;;;5094399;28;20174;-53
2024/01/21 05:47:25;;;;;;;16.08;8.52;;;-1.30;99.90;;;;;;5094626;28;20196;-52
2024/01/21 05:49:50;;;;;;;14.45;8.02;;;-1.30;99.90;;;;;;5094949;28;20169;-53
2024/01/21 05:52:16;;;;;;;14.13;7.47;;;-1.30;99.90;;;;;;5094481;28;20172;-53
2024/01/21 05:54:42;;;;;;;14.25;7.75;;;-1.30;99.90;;;;;;5094597;28;20169;-52
2024/01/21 05:57:08;;;;;;;15.52;8.07;;;-1.30;99.90;;;;;;5094126;28;20216;-54
2024/01/21 05:59:34;;;;;;;12.27;7.28;;;-1.20;99.90;;;;;;5094510;28;20173;-53
2024/01/21 06:02:00;;;;;;;15.75;8.35;;;-1.20;99.90;;;;;;5094161;28;20745;-52
2024/01/21 06:04:25;;;;;;;13.60;7.43;;;-1.20;99.90;;;;;;5094346;28;20161;-53
2024/01/21 06:06:51;;;;;;;12.60;7.10;;;-1.10;99.90;;;;;;5094614;28;20591;-52
2024/01/21 06:09:17;;;;;;;15.00;8.23;;;-1.20;99.90;;;;;;5094130;28;20165;-54
2024/01/21 06:11:44;;;;;;;12.32;6.72;;;-1.10;99.90;;;;;;5094069;28;20170;-53
2024/01/21 06:14:11;;;;;;;13.32;6.93;;;-1.10;99.90;;;;;;5094338;28;20246;-53
2024/01/21 06:16:36;;;;;;;14.07;8.20;;;-1.10;99.90;;;;;;5092790;28;20180;-55
2024/01/21 06:19:03;;;;;;;15.55;7.22;;;-1.10;99.90;;;;;;5092910;28;20516;-53
2024/01/21 06:21:29;;;;;;;11.55;6.72;;;-1.10;99.90;;;;;;5092728;28;20208;-55
2024/01/21 06:23:55;;;;;;;14.65;7.07;;;-1.10;99.90;;;;;;5093310;28;20169;-54
2024/01/21 06:26:22;;;;;;;13.25;7.68;;;-1.10;99.90;;;;;;5093270;28;20549;-54
2024/01/21 06:28:51;;;;;;;12.00;6.43;;;-1.00;99.90;;;;;;5093774;28;20651;-53
2024/01/21 06:31:17;;;;;;;13.60;7.40;;;-1.00;99.90;;;;;;5092282;28;20628;-53
2024/01/21 06:33:44;;;;;;;16.30;7.40;;;-1.00;99.90;;;;;;5093602;28;20557;-53
2024/01/21 06:36:10;;;;;;;14.32;6.65;;;-0.40;99.90;;;;;;5092269;28;20165;-54
2024/01/21 06:38:38;;;;;;;13.48;7.35;;;-0.90;99.90;;;;;;5092268;28;20166;-56
2024/01/21 06:41:03;;;;;;;10.60;6.15;;;-0.90;99.90;;;;;;5075594;28;20687;-55
2024/01/21 06:43:29;;;;;;;14.05;7.30;;;-0.90;99.90;;;;;;5092147;28;20219;-53
2024/01/21 06:45:55;;;;;;;10.80;6.50;;;-0.90;99.90;;;;;;5093623;28;20177;-54
2024/01/21 06:48:21;;;;;;;14.65;7.05;;;-0.80;99.90;;;;;;5092480;28;20624;-56
2024/01/21 06:50:48;;;;;;;11.50;5.72;;;-0.80;99.90;;;;;;5093254;28;20166;-57
2024/01/21 06:53:15;;;;;;;15.57;7.18;;;-0.90;99.90;;;;;;5093505;28;20518;-54
2024/01/21 06:55:43;;;;;;;19.02;8.82;;;-0.80;99.90;;;;;;5092970;28;20617;-53
2024/01/21 06:58:09;;;;;;;14.57;8.75;;;-0.80;99.90;;;;;;5091430;28;20177;-56
2024/01/21 07:00:34;;;;;;;13.43;7.88;;;-0.50;99.90;;;;;;5092945;28;20281;-53
2024/01/21 07:03:00;;;;;;;14.05;6.57;;;-0.80;99.90;;;;;;5093237;28;20173;-53
2024/01/21 07:05:26;;;;;;;12.88;7.07;;;-0.80;99.90;;;;;;5092949;28;20252;-55
2024/01/21 07:07:51;;;;;;;13.35;8.07;;;-0.80;99.90;;;;;;5093455;28;20165;-56
2024/01/21 07:10:17;;;;;;;17.52;8.88;;;-0.70;99.90;;;;;;5091374;28;20168;-54
2024/01/21 07:12:43;;;;;;;13.60;7.80;;;-0.70;99.90;;;;;;5092722;28;20200;-56
2024/01/21 07:15:09;;;;;;;14.27;7.85;;;-0.60;99.90;;;;;;5091487;28;20168;-56
2024/01/21 07:17:34;;;;;;;12.93;7.45;;;-0.60;99.90;;;;;;5092639;28;20157;-57
2024/01/21 07:20:00;;;;;;;14.27;7.55;;;-0.60;99.90;;;;;;5091436;28;20165;-55
2024/01/21 07:22:26;;;;;;;13.10;6.90;;;1.90;99.90;;;;;;5091179;28;20300;-56
2024/01/21 07:24:52;;;;;;;11.52;6.68;;;-0.50;99.90;;;;;;5091805;28;20165;-56
2024/01/21 07:27:24;;;;;;;11.40;7.30;;;-0.60;99.90;;;;;;5092608;28;20675;-53
2024/01/21 07:29:50;;;;;;;10.82;6.45;;;2.20;99.90;;;;;;5093004;28;20173;-53
2024/01/21 07:32:16;;;;;;;12.75;6.65;;;-0.50;99.90;;;;;;5092723;28;20177;-57
2024/01/21 07:34:42;;;;;;;12.23;6.70;;;-0.50;99.90;;;;;;5091017;28;20665;-58
2024/01/21 07:37:11;;;;;;;19.02;6.55;;;-0.50;99.90;;;;;;5090466;28;20165;-55
2024/01/21 07:39:37;;;;;;;13.82;7.65;;;-0.50;99.90;;;;;;5090556;28;20247;-53
2024/01/21 07:42:02;;;;;;;13.20;6.43;;;-0.40;99.90;;;;;;5090934;28;20234;-57
2024/01/21 07:44:28;;;;;;;12.55;7.38;;;-0.40;99.90;;;;;;5092218;28;20252;-54
2024/01/21 07:46:54;;;;;;;11.10;6.85;;;-0.50;99.90;;;;;;5092417;28;20172;-54
2024/01/21 07:49:20;;;;;;;13.10;6.60;;;-0.50;99.90;;;;;;5091324;28;20173;-53
2024/01/21 07:51:46;;;;;;;10.70;6.35;;;-0.10;99.90;;;;;;5090498;28;20184;-56
2024/01/21 07:54:11;;;;;;;9.77;6.00;;;-0.40;99.90;;;;;;5090389;28;20177;-57
2024/01/21 07:56:37;;;;;;;11.05;6.30;;;-0.30;99.90;;;;;;5091746;28;20221;-57
2024/01/21 07:59:03;;;;;;;15.52;8.02;;;-0.20;99.90;;;;;;5091581;28;20162;-55
2024/01/21 08:01:28;;;;;;;11.50;6.82;;;-0.20;99.90;;;;;;5091694;28;20204;-55
2024/01/21 08:03:54;;;;;;;11.00;7.10;;;-0.20;99.90;;;;;;5091511;28;20158;-55
2024/01/21 08:06:20;;;;;;;13.00;7.28;;;-0.20;99.90;;;;;;5090612;28;20573;-57
2024/01/21 08:08:46;;;;;;;14.35;7.00;;;-0.10;99.90;;;;;;5091717;28;20249;-55
2024/01/21 08:11:12;;;;;;;11.40;6.93;;;-0.10;99.90;;;;;;5089811;28;20169;-56
2024/01/21 08:13:37;;;;;;;12.35;7.20;;;-0.10;99.90;;;;;;5088394;28;20172;-54
2024/01/21 08:16:03;;;;;;;14.93;7.03;;;0.00;99.90;;;;;;5088335;28;20193;-57
2024/01/21 08:18:29;;;;;;;10.35;6.70;;;0.00;99.90;;;;;;5089619;28;20173;-56
2024/01/21 08:20:54;;;;;;;13.02;6.80;;;0.00;99.90;;;;;;5089494;28;20210;-57
2024/01/21 08:23:20;;;;;;;11.63;6.40;;;0.00;99.90;;;;;;5089052;28;20169;-56
2024/01/21 08:25:46;;;;;;;10.25;5.75;;;0.00;99.90;;;;;;5089892;28;20173;-57
2024/01/21 08:28:11;;;;;;;10.32;6.18;;;0.10;99.90;;;;;;5089607;28;20636;-56
2024/01/21 08:30:37;;;;;;;9.48;6.18;;;0.20;99.90;;;;;;5089737;28;20625;-55
2024/01/21 08:33:03;;;;;;;10.65;6.63;;;0.30;99.90;;;;;;5088500;28;20628;-56
2024/01/21 08:35:29;;;;;;;11.50;6.15;;;0.30;99.90;;;;;;5089588;28;20236;-54
2024/01/21 08:37:55;;;;;;;11.57;6.70;;;0.30;99.90;;;;;;5088345;28;20173;-54
2024/01/21 08:40:20;;;;;;;11.00;6.07;;;0.40;99.90;;;;;;5091603;28;20169;-55
2024/01/21 08:42:46;;;;;;;9.30;5.97;;;0.40;99.90;;;;;;5091341;28;20200;-56
2024/01/21 08:45:11;;;;;;;9.93;5.53;;;0.60;99.90;;;;;;5090050;28;20169;-56
2024/01/21 08:47:38;;;;;;;9.95;6.10;;;0.80;99.90;;;;;;5091082;28;20165;-55
2024/01/21 08:50:04;;;;;;;10.98;5.95;;;1.00;99.90;;;;;;5090361;28;20678;-54
2024/01/21 08:52:30;;;;;;;8.48;5.18;;;1.10;99.90;;;;;;5090235;28;20173;-54
2024/01/21 08:54:56;;;;;;;9.45;5.55;;;1.30;99.90;;;;;;5089977;28;20169;-53
2024/01/21 08:57:22;;;;;;;7.57;4.38;;;1.40;99.90;;;;;;5090862;28;20681;-58
2024/01/21 08:59:50;;;;;;;10.73;5.68;;;1.50;99.90;;;;;;5091199;28;20197;-58
2024/01/21 09:02:16;;;;;;;8.60;4.88;;;1.60;99.90;;;;;;5091312;28;20212;-57
2024/01/21 09:04:42;;;;;;;9.88;5.43;;;1.70;99.90;;;;;;5091803;28;20222;-58
2024/01/21 09:07:07;;;;;;;10.05;5.28;;;1.70;99.90;;;;;;5091145;28;20571;-56
2024/01/21 09:09:34;;;;;;;10.57;5.43;;;1.80;99.90;;;;;;5090831;28;20166;-52
2024/01/21 09:12:00;;;;;;;9.13;5.95;;;1.80;99.90;;;;;;5091303;28;20165;-54
2024/01/21 09:14:26;;;;;;;10.15;5.65;;;1.90;99.90;;;;;;5091109;28;20192;-52
2024/01/21 09:16:51;;;;;;;10.35;5.20;;;1.80;99.90;;;;;;5091399;28;20578;-55
2024/01/21 09:19:17;;;;;;;7.20;5.05;;;1.90;99.90;;;;;;5091221;28;20676;-54
2024/01/21 09:21:42;;;;;;;8.10;5.40;;;1.90;99.90;;;;;;5090864;28;20602;-52
2024/01/21 09:24:08;;;;;;;12.18;6.07;;;2.00;99.90;;;;;;5091211;28;20303;-56
2024/01/21 09:26:34;;;;;;;9.88;6.10;;;2.10;99.90;;;;;;5089641;28;20188;-52
2024/01/21 09:29:00;;;;;;;13.85;6.75;;;2.10;99.90;;;;;;5089581;28;20165;-52
2024/01/21 09:31:26;;;;;;;10.98;6.65;;;2.20;99.90;;;;;;5090953;28;20173;-53
2024/01/21 09:33:52;;;;;;;11.52;6.65;;;2.20;99.90;;;;;;5091392;28;20164;-54
2024/01/21 09:36:19;;;;;;;11.07;6.38;;;2.40;99.90;;;;;;5090414;28;20261;-53
2024/01/21 09:38:44;;;;;;;12.23;6.65;;;2.50;99.90;;;;;;5090895;28;20161;-53
2024/01/21 09:41:44;;;;;;;9.13;6.00;;;2.60;99.90;;;;;;5090865;28;20243;-52
2024/01/21 09:44:10;;;;;;;10.30;6.45;;;2.80;99.90;;;;;;5090799;28;20170;-53
2024/01/21 09:46:36;;;;;;;15.07;6.63;;;2.90;99.90;;;;;;5090687;28;20222;-54
2024/01/21 09:49:03;;;;;;;15.90;7.13;;;3.00;99.90;;;;;;5090125;28;20616;-54
2024/01/21 09:51:30;;;;;;;8.98;5.78;;;3.00;99.90;;;;;;5090614;28;20170;-54
2024/01/21 09:53:56;;;;;;;11.30;6.82;;;2.90;99.90;;;;;;5090254;28;20161;-52
2024/01/21 09:56:22;;;;;;;10.25;6.15;;;2.90;99.90;;;;;;5091021;28;20220;-54
2024/01/21 09:58:50;;;;;;;11.13;6.57;;;3.00;99.90;;;;;;5091857;28;20170;-55
2024/01/21 10:01:16;;;;;;;9.13;6.10;;;3.00;99.90;;;;;;5093921;28;20204;-57
2024/01/21 10:03:43;;;;;;;8.45;6.40;;;3.00;99.90;;;;;;5094262;28;20246;-55
2024/01/21 10:06:09;;;;;;;11.07;6.28;;;3.10;99.90;;;;;;5094447;28;20174;-52
2024/01/21 10:08:42;;;;;;;9.60;6.25;;;3.10;99.90;;;;;;5092607;28;20688;-53
2024/01/21 10:11:08;;;;;;;10.95;6.75;;;3.00;99.90;;;;;;5094210;28;20161;-54
2024/01/21 10:13:36;;;;;;;10.30;6.65;;;3.10;99.90;;;;;;5092823;28;20169;-57
2024/01/21 10:16:02;;;;;;;9.07;6.25;;;3.10;99.90;;;;;;5093781;28;20234;-52
2024/01/21 10:18:28;;;;;;;8.57;5.57;;;3.10;99.90;;;;;;5093707;28;20637;-53
2024/01/21 10:20:55;;;;;;;9.80;6.15;;;3.10;99.90;;;;;;5093913;28;20246;-54
2024/01/21 10:23:21;;;;;;;9.68;6.15;;;3.00;99.90;;;;;;5094441;28;20169;-52
2024/01/21 10:25:48;;;;;;;11.55;5.95;;;3.00;99.90;;;;;;5093813;28;20252;-52
2024/01/21 10:28:14;;;;;;;10.20;6.57;;;3.00;99.90;;;;;;5093825;28;20681;-52
2024/01/21 10:30:42;;;;;;;9.45;6.10;;;3.00;99.90;;;;;;5093956;28;20169;-54
2024/01/21 10:33:07;;;;;;;11.40;7.25;;;3.10;99.90;;;;;;5093708;28;20193;-58
2024/01/21 10:35:33;;;;;;;14.00;7.20;;;3.20;99.90;;;;;;5093680;28;20247;-53
2024/01/21 10:38:02;;;;;;;7.97;5.65;;;3.30;99.90;;;;;;5093543;28;20188;-54
2024/01/21 10:40:28;;;;;;;11.52;6.97;;;3.30;99.90;;;;;;5093402;28;20154;-52
2024/01/21 10:42:58;;;;;;;21.25;12.23;;;3.40;99.90;;;;;;5093233;28;20230;-53
2024/01/21 10:45:25;;;;;;;12.68;8.15;;;3.40;99.90;;;;;;5093636;28;20197;-56
2024/01/21 10:47:52;;;;;;;100.43;60.78;;;3.50;99.90;;;;;;5093833;28;20256;-54
2024/01/21 10:50:19;;;;;;;21.23;13.00;;;3.40;99.90;;;;;;5093083;28;20167;-53
2024/01/21 10:52:47;;;;;;;11.05;7.70;;;3.50;99.90;;;;;;5093230;28;20172;-53
2024/01/21 10:55:13;;;;;;;15.95;12.65;;;3.40;99.90;;;;;;5093284;28;20161;-53
2024/01/21 10:57:39;;;;;;;12.38;9.48;;;3.30;99.90;;;;;;5093011;28;20576;-53
2024/01/21 11:00:06;;;;;;;10.73;7.25;;;3.30;99.90;;;;;;5093373;28;20165;-54
2024/01/21 11:02:32;;;;;;;19.42;12.80;;;3.30;99.90;;;;;;5092947;28;20668;-51
2024/01/21 11:04:58;;;;;;;20.38;11.88;;;3.50;99.90;;;;;;5092968;28;20181;-53
2024/01/21 11:07:29;;;;;;;11.95;7.97;;;3.60;99.90;;;;;;5092891;28;20173;-54
2024/01/21 11:09:56;;;;;;;13.80;9.00;;;3.60;99.90;;;;;;5090726;28;20648;-51
2024/01/21 11:12:22;;;;;;;11.48;7.75;;;3.60;99.90;;;;;;5093274;28;20630;-53
2024/01/21 11:14:48;;;;;;;10.02;7.05;;;3.60;99.90;;;;;;5093131;28;20201;-55
2024/01/21 11:17:18;;;;;;;25.60;17.13;;;3.60;99.90;;;;;;5093230;28;20663;-53
2024/01/21 11:19:48;;;;;;;18.63;12.98;;;3.70;99.90;;;;;;5092809;28;20226;-55
2024/01/21 11:22:16;;;;;;;10.82;6.78;;;3.70;99.90;;;;;;5092656;28;20246;-56
2024/01/21 11:24:45;;;;;;;20.02;16.95;;;3.70;99.90;;;;;;5091573;28;20173;-51
2024/01/21 11:27:17;;;;;;;11.50;7.82;;;3.70;99.90;;;;;;5092976;28;20173;-53
2024/01/21 11:29:43;;;;;;;11.43;7.32;;;4.30;99.90;;;;;;5092718;28;21171;-53
2024/01/21 11:32:09;;;;;;;9.80;6.60;;;3.70;99.90;;;;;;5092489;28;20173;-57
2024/01/21 11:34:39;;;;;;;10.93;6.93;;;3.80;99.90;;;;;;5092395;28;20165;-57
2024/01/21 11:37:07;;;;;;;8.88;6.03;;;3.80;99.90;;;;;;5092438;28;20539;-55
2024/01/21 11:39:33;;;;;;;8.23;5.50;;;3.80;99.90;;;;;;5092316;28;20245;-53
2024/01/21 11:42:00;;;;;;;9.18;6.25;;;3.80;99.90;;;;;;5092325;28;20280;-54
2024/01/21 11:44:28;;;;;;;13.38;7.88;;;3.80;99.90;;;;;;5092518;28;20503;-53
2024/01/21 11:46:56;;;;;;;11.88;6.32;;;3.90;99.90;;;;;;5092229;28;20219;-53
2024/01/21 11:49:23;;;;;;;10.70;6.80;;;3.90;99.90;;;;;;5092997;28;20260;-53
2024/01/21 11:51:49;;;;;;;7.45;5.32;;;5.90;99.90;;;;;;5092705;28;20172;-53
2024/01/21 11:54:16;;;;;;;7.07;5.45;;;4.00;99.90;;;;;;5092175;28;20216;-53
2024/01/21 11:56:42;;;;;;;7.90;5.10;;;4.20;99.90;;;;;;5092052;28;20232;-53
2024/01/21 11:59:14;;;;;;;10.00;5.75;;;4.20;99.90;;;;;;5092076;28;20188;-53
2024/01/21 12:01:40;;;;;;;7.63;4.93;;;4.30;99.90;;;;;;5090488;28;20212;-54
2024/01/21 12:04:09;;;;;;;7.45;4.85;;;4.40;99.90;;;;;;5090877;28;20169;-57
2024/01/21 12:06:41;;;;;;;8.63;5.47;;;4.40;99.90;;;;;;5091366;28;20187;-57
2024/01/21 12:09:09;;;;;;;5.93;4.70;;;4.40;99.90;;;;;;5089794;28;20173;-57
2024/01/21 12:11:36;;;;;;;7.97;5.20;;;4.40;99.90;;;;;;5090997;28;20651;-57
2024/01/21 12:14:05;;;;;;;8.02;4.90;;;4.50;99.90;;;;;;5091353;28;20173;-56
2024/01/21 12:16:30;;;;;;;9.15;5.75;;;4.60;99.90;;;;;;5090968;28;20161;-55
2024/01/21 12:18:56;;;;;;;7.07;4.97;;;4.50;99.90;;;;;;5090911;28;20169;-56
2024/01/21 12:21:25;;;;;;;6.55;4.80;;;4.50;99.90;;;;;;5091018;28;20236;-57
2024/01/21 12:23:54;;;;;;;9.38;5.72;;;4.60;99.90;;;;;;5091386;28;20165;-56
2024/01/21 12:26:21;;;;;;;9.10;5.20;;;4.60;99.90;;;;;;5091143;28;20527;-57
2024/01/21 12:28:56;;;;;;;6.80;5.05;;;4.60;99.90;;;;;;5089233;28;20668;-56
2024/01/21 12:31:39;;;;;;;7.40;5.50;;;4.60;99.90;;;;;;5091349;28;20161;-57
2024/01/21 12:34:09;;;;;;;8.30;5.03;;;4.80;99.90;;;;;;5090649;28;20259;-52
2024/01/21 12:36:37;;;;;;;6.43;4.63;;;4.80;99.90;;;;;;5090929;28;20173;-56